Time;durP1;ratioP1;P1;durP2;ratioP2;P2;SDS_P1;SDS_P2;PMS_P1;PMS_P2;Temp;Humidity;BMP_temperature;BMP_pressure;BME280_temperature;BME280_humidity;BME280_pressure;Samples;Min_cycle;Max_cycle;Signal;HPM_P1;HPM_P2
2023/10/26 00:00:01;;;;;;;7.22;3.92;;;;;;;16.23;76.15;92697.78;528080;28;852;-41
2023/10/26 00:00:17;;;;;;;6.97;3.73;;;;;;;16.24;76.33;92699.25;528177;28;849;-40
2023/10/26 00:00:32;;;;;;;5.90;3.57;;;;;;;16.23;76.50;92695.00;528099;28;913;-41
2023/10/26 00:00:47;;;;;;;6.82;3.72;;;;;;;16.23;76.51;92692.94;528131;28;810;-41
2023/10/26 00:01:03;;;;;;;6.07;3.87;;;;;;;16.24;76.60;92693.66;528127;28;896;-41
2023/10/26 00:01:18;;;;;;;6.45;3.67;;;;;;;16.23;76.61;92692.19;528153;28;852;-40
2023/10/26 00:01:34;;;;;;;6.17;3.07;;;;;;;16.23;76.23;92697.78;528175;28;786;-41
2023/10/26 00:01:49;;;;;;;6.67;3.33;;;;;;;16.22;76.42;92691.47;528141;28;766;-40
2023/10/26 00:02:04;;;;;;;7.82;3.70;;;;;;;16.22;76.38;92691.47;528198;28;797;-40
2023/10/26 00:02:20;;;;;;;7.40;3.57;;;;;;;16.22;76.41;92697.03;528091;28;900;-40
2023/10/26 00:02:35;;;;;;;8.10;3.77;;;;;;;16.23;76.47;92697.78;528168;28;936;-41
2023/10/26 00:02:51;;;;;;;6.88;3.40;;;;;;;16.24;76.37;92693.66;528170;28;817;-40
2023/10/26 00:03:07;;;;;;;6.35;3.33;;;;;;;16.24;76.40;92686.03;528014;28;1914;-41
2023/10/26 00:03:22;;;;;;;6.07;3.37;;;;;;;16.24;76.27;92691.59;528179;28;833;-41
2023/10/26 00:03:37;;;;;;;5.83;3.33;;;;;;;16.23;76.25;92692.94;528171;28;809;-40
2023/10/26 00:03:53;;;;;;;5.07;3.13;;;;;;;16.23;76.22;92690.16;528100;28;1639;-41
2023/10/26 00:04:08;;;;;;;4.80;2.97;;;;;;;16.23;76.34;92689.41;528147;28;802;-41
2023/10/26 00:04:23;;;;;;;4.50;3.13;;;;;;;16.22;76.26;92688.69;528178;28;944;-40
2023/10/26 00:04:39;;;;;;;4.32;3.28;;;;;;;16.22;76.21;92691.47;528089;28;893;-40
2023/10/26 00:04:54;;;;;;;5.43;3.47;;;;;;;16.21;76.14;92690.03;528166;28;873;-40
2023/10/26 00:05:10;;;;;;;5.70;3.58;;;;;;;16.21;76.25;92692.81;528179;28;826;-40
2023/10/26 00:05:25;;;;;;;4.40;3.13;;;;;;;16.20;76.11;92691.34;528163;28;790;-41
2023/10/26 00:05:40;;;;;;;3.40;2.90;;;;;;;16.22;75.74;92690.75;528173;28;781;-40
2023/10/26 00:05:56;;;;;;;5.47;3.17;;;;;;;16.21;76.04;92686.50;528060;28;886;-41
2023/10/26 00:06:12;;;;;;;7.37;3.87;;;;;;;16.20;75.85;92688.56;528098;28;817;-40
2023/10/26 00:06:27;;;;;;;6.38;3.70;;;;;;;16.21;75.93;92683.72;528057;28;882;-40
2023/10/26 00:06:42;;;;;;;6.27;3.30;;;;;;;16.20;75.88;92688.56;528170;28;805;-41
2023/10/26 00:06:58;;;;;;;4.70;3.13;;;;;;;16.21;75.97;92692.81;528162;28;852;-40
2023/10/26 00:07:14;;;;;;;7.57;3.03;;;;;;;16.21;75.89;92692.81;528142;28;877;-40
2023/10/26 00:07:29;;;;;;;8.63;3.28;;;;;;;16.21;75.71;92686.50;528035;28;1113;-41
2023/10/26 00:07:45;;;;;;;5.63;3.50;;;;;;;16.17;75.68;92678.66;528289;28;758;-40
2023/10/26 00:08:00;;;;;;;6.20;3.28;;;;;;;16.20;75.65;92691.34;528135;28;817;-40
2023/10/26 00:08:15;;;;;;;5.87;3.10;;;;;;;16.20;75.64;92691.34;528154;28;799;-40
2023/10/26 00:08:31;;;;;;;4.87;3.50;;;;;;;16.19;75.73;92692.69;528137;28;896;-40
2023/10/26 00:08:46;;;;;;;10.45;3.50;;;;;;;16.19;75.72;92687.13;528167;28;805;-41
2023/10/26 00:09:01;;;;;;;10.27;3.10;;;;;;;16.18;75.69;92688.44;528105;28;786;-41
2023/10/26 00:09:17;;;;;;;6.97;3.43;;;;;;;16.18;75.83;92691.22;528136;28;820;-41
2023/10/26 00:09:32;;;;;;;6.15;3.45;;;;;;;16.17;75.52;92692.56;528163;28;1082;-41
2023/10/26 00:09:47;;;;;;;4.60;3.77;;;;;;;16.16;75.65;92693.16;528099;28;900;-41
2023/10/26 00:10:03;;;;;;;7.13;4.30;;;;;;;16.09;75.65;92683.69;528162;28;895;-41
2023/10/26 00:10:19;;;;;;;6.30;3.80;;;;;;;16.16;75.72;92691.09;528094;28;808;-40
2023/10/26 00:10:38;;;;;;;5.83;3.60;;;;;;;16.14;75.79;92690.97;528146;28;940;-40
2023/10/26 00:10:53;;;;;;;5.95;3.53;;;;;;;16.13;75.81;92689.53;528134;28;828;-41
2023/10/26 00:11:08;;;;;;;5.32;3.40;;;;;;;16.12;75.88;92681.78;528120;28;1086;-41
2023/10/26 00:11:24;;;;;;;5.80;3.63;;;;;;;16.11;76.04;92689.41;528151;28;939;-41
2023/10/26 00:11:39;;;;;;;5.70;3.83;;;;;;;16.11;76.15;92686.63;528147;28;841;-40
2023/10/26 00:11:55;;;;;;;5.23;4.00;;;;;;;16.12;76.09;92690.13;528120;28;841;-40
2023/10/26 00:12:10;;;;;;;6.77;3.67;;;;;;;16.11;76.17;92681.06;528090;28;1536;-41
2023/10/26 00:12:25;;;;;;;7.47;3.47;;;;;;;16.10;76.20;92690.00;528165;28;864;-40
2023/10/26 00:12:41;;;;;;;6.13;3.40;;;;;;;16.10;76.26;92685.16;528139;28;805;-40
2023/10/26 00:12:56;;;;;;;6.00;3.40;;;;;;;15.92;76.27;92658.97;528753;28;2364;-40
2023/10/26 00:13:12;;;;;;;6.30;3.55;;;;;;;16.11;76.40;92689.41;530283;28;804;-40
2023/10/26 00:13:27;;;;;;;4.70;3.40;;;;;;;16.12;76.48;92679.00;530234;28;932;-40
2023/10/26 00:13:42;;;;;;;5.77;3.73;;;;;;;16.12;76.30;92685.28;530324;28;781;-41
2023/10/26 00:13:58;;;;;;;6.43;3.63;;;;;;;16.13;76.18;92683.97;530184;28;944;-40
2023/10/26 00:14:13;;;;;;;4.37;3.00;;;;;;;16.13;76.35;92681.19;530324;27;1385;-40
2023/10/26 00:14:28;;;;;;;8.17;3.40;;;;;;;16.13;76.16;92680.44;530253;28;852;-41
2023/10/26 00:14:44;;;;;;;8.93;3.75;;;;;;;16.13;76.18;92681.19;530288;28;1164;-40
2023/10/26 00:14:59;;;;;;;5.93;4.20;;;;;;;16.13;75.96;92686.03;530160;27;924;-41
2023/10/26 00:15:15;;;;;;;6.32;4.43;;;;;;;16.12;76.27;92679.72;530322;28;887;-41
2023/10/26 00:15:30;;;;;;;6.87;4.13;;;;;;;16.13;76.11;92683.97;530210;27;846;-40
2023/10/26 00:15:45;;;;;;;6.50;3.87;;;;;;;16.13;76.16;92683.97;530242;27;848;-41
2023/10/26 00:16:01;;;;;;;5.28;3.58;;;;;;;16.14;76.25;92684.69;530271;28;855;-41
2023/10/26 00:16:16;;;;;;;5.30;3.60;;;;;;;16.13;76.36;92691.59;530197;27;896;-40
2023/10/26 00:16:31;;;;;;;5.60;3.73;;;;;;;16.12;76.29;92688.06;530193;27;880;-40
2023/10/26 00:16:47;;;;;;;7.55;3.85;;;;;;;16.13;76.39;92689.53;530269;27;920;-41
2023/10/26 00:17:02;;;;;;;7.30;3.97;;;;;;;16.13;76.46;92692.31;530334;27;773;-40
2023/10/26 00:17:18;;;;;;;8.07;3.87;;;;;;;16.14;76.47;92684.69;530214;27;908;-40
2023/10/26 00:17:33;;;;;;;8.00;3.53;;;;;;;16.13;76.61;92689.53;530341;28;812;-41
2023/10/26 00:17:49;;;;;;;6.03;3.53;;;;;;;16.15;76.95;92691.72;530254;27;828;-41
2023/10/26 00:18:04;;;;;;;5.38;3.53;;;;;;;16.12;76.97;92681.78;530261;27;840;-40
2023/10/26 00:18:20;;;;;;;5.07;3.50;;;;;;;16.11;76.86;92686.63;530168;28;808;-41
2023/10/26 00:18:35;;;;;;;4.72;3.33;;;;;;;16.00;76.89;92678.25;530213;28;844;-40
2023/10/26 00:18:51;;;;;;;4.57;3.17;;;;;;;16.03;76.88;92683.34;530217;28;868;-40
2023/10/26 00:19:06;;;;;;;5.82;3.25;;;;;;;16.05;77.00;92689.03;530300;28;825;-40
2023/10/26 00:19:21;;;;;;;6.10;3.30;;;;;;;16.04;77.07;92687.59;530252;28;816;-40
2023/10/26 00:19:37;;;;;;;3.93;3.30;;;;;;;16.05;77.01;92679.97;530172;27;857;-41
2023/10/26 00:19:52;;;;;;;5.32;3.38;;;;;;;15.94;76.75;92668.19;530263;28;809;-40
2023/10/26 00:20:08;;;;;;;5.37;3.60;;;;;;;16.06;76.81;92681.41;530218;28;892;-40
2023/10/26 00:20:24;;;;;;;4.72;3.72;;;;;;;16.06;76.52;92684.94;530147;27;889;-41
2023/10/26 00:20:39;;;;;;;4.87;3.37;;;;;;;16.06;76.51;92684.94;530282;27;863;-40
2023/10/26 00:20:58;;;;;;;6.85;3.72;;;;;;;15.97;76.58;92682.97;530303;28;844;-40
2023/10/26 00:21:14;;;;;;;8.55;4.07;;;;;;;15.94;76.72;92692.50;530172;28;923;-40
2023/10/26 00:21:29;;;;;;;5.80;3.57;;;;;;;15.87;77.13;92694.19;529970;27;1274;-40
2023/10/26 00:21:44;;;;;;;4.53;3.20;;;;;;;15.79;77.46;92699.25;530104;28;889;-41
2023/10/26 00:22:00;;;;;;;4.50;3.30;;;;;;;15.74;77.70;92691.28;530175;27;1002;-40
2023/10/26 00:22:15;;;;;;;4.43;3.67;;;;;;;15.71;77.83;92687.63;530189;28;1165;-40
2023/10/26 00:22:30;;;;;;;4.93;3.90;;;;;;;15.73;78.13;92690.53;530201;28;1666;-41
2023/10/26 00:22:46;;;;;;;4.77;3.70;;;;;;;15.69;77.98;92687.50;530243;28;863;-40
2023/10/26 00:23:01;;;;;;;7.83;3.60;;;;;;;15.75;78.12;92689.94;530180;28;2005;-40
2023/10/26 00:23:17;;;;;;;7.45;3.72;;;;;;;15.76;78.09;92697.69;530237;27;871;-41
2023/10/26 00:23:32;;;;;;;5.60;4.03;;;;;;;15.79;78.13;92698.53;530244;27;1116;-41
2023/10/26 00:23:47;;;;;;;6.57;4.13;;;;;;;15.80;78.14;92691.66;530140;28;1125;-40
2023/10/26 00:24:03;;;;;;;5.33;3.60;;;;;;;15.82;78.20;92697.34;528350;28;1575;-41
2023/10/26 00:24:18;;;;;;;4.88;3.40;;;;;;;15.83;78.06;92691.16;528122;28;1280;-41
2023/10/26 00:24:34;;;;;;;4.63;3.57;;;;;;;15.86;77.88;92694.81;530235;28;868;-40
2023/10/26 00:24:50;;;;;;;4.03;3.53;;;;;;;15.87;77.57;92691.41;530182;27;817;-40
2023/10/26 00:25:06;;;;;;;3.58;3.17;;;;;;;15.88;77.51;92690.09;530287;27;828;-41
2023/10/26 00:25:21;;;;;;;5.75;3.40;;;;;;;15.90;77.36;92686.69;530093;27;834;-41
2023/10/26 00:25:37;;;;;;;6.13;3.58;;;;;;;15.91;77.27;92691.69;530170;28;900;-41
2023/10/26 00:25:53;;;;;;;4.70;3.03;;;;;;;15.92;77.26;92684.03;530250;28;1530;-41
2023/10/26 00:26:09;;;;;;;4.60;2.92;;;;;;;15.86;77.03;92678.09;530120;28;880;-41
2023/10/26 00:26:24;;;;;;;4.37;3.03;;;;;;;15.93;76.81;92691.06;530285;28;856;-41
2023/10/26 00:26:40;;;;;;;4.00;3.10;;;;;;;15.93;76.65;92683.47;530185;28;1158;-40
2023/10/26 00:26:56;;;;;;;4.78;3.42;;;;;;;15.94;76.49;92689.72;530261;28;805;-40
2023/10/26 00:27:11;;;;;;;4.17;3.23;;;;;;;15.92;76.58;92689.59;530209;28;916;-40
2023/10/26 00:27:26;;;;;;;4.37;3.10;;;;;;;15.92;76.46;92684.78;530216;28;888;-40
2023/10/26 00:27:42;;;;;;;5.83;3.00;;;;;;;15.92;76.35;92695.91;530217;28;839;-41
2023/10/26 00:27:58;;;;;;;5.80;3.08;;;;;;;15.89;76.43;92685.25;530290;28;777;-40
2023/10/26 00:28:14;;;;;;;5.30;3.30;;;;;;;15.90;76.32;92692.25;530243;28;817;-40
2023/10/26 00:28:29;;;;;;;4.93;3.13;;;;;;;15.89;76.30;92699.19;530231;28;785;-41
2023/10/26 00:28:44;;;;;;;4.33;2.93;;;;;;;15.89;76.47;92690.81;530306;28;801;-40
2023/10/26 00:29:00;;;;;;;4.70;3.33;;;;;;;15.89;76.41;92693.59;530155;28;1112;-40
2023/10/26 00:29:15;;;;;;;5.07;3.38;;;;;;;15.87;76.28;92694.19;530312;28;833;-40
2023/10/26 00:29:30;;;;;;;6.30;3.40;;;;;;;15.88;76.48;92698.44;530236;28;952;-40
2023/10/26 00:29:46;;;;;;;6.90;3.70;;;;;;;15.88;76.40;92698.44;530207;28;880;-40
2023/10/26 00:30:01;;;;;;;5.47;3.58;;;;;;;15.88;76.58;92692.88;530200;28;825;-41
2023/10/26 00:30:17;;;;;;;4.37;3.30;;;;;;;15.89;76.54;92693.59;530277;28;797;-40
2023/10/26 00:30:32;;;;;;;4.50;3.07;;;;;;;15.89;76.77;92699.19;530209;28;968;-40
2023/10/26 00:30:47;;;;;;;5.32;3.13;;;;;;;15.90;76.82;92700.63;530199;28;872;-40
2023/10/26 00:31:03;;;;;;;5.17;3.00;;;;;;;15.91;76.95;92702.09;530214;28;857;-41
2023/10/26 00:31:18;;;;;;;4.30;2.80;;;;;;;15.92;77.08;92697.97;530148;28;797;-40
2023/10/26 00:31:34;;;;;;;5.03;2.77;;;;;;;15.91;77.06;92700.03;530257;28;1030;-40
2023/10/26 00:31:49;;;;;;;6.80;2.80;;;;;;;15.93;77.22;92699.44;530165;28;932;-40
2023/10/26 00:32:05;;;;;;;6.70;2.90;;;;;;;15.92;77.22;92698.69;530227;28;927;-41
2023/10/26 00:32:21;;;;;;;6.22;3.22;;;;;;;15.91;77.23;92697.25;530235;28;958;-40
2023/10/26 00:32:37;;;;;;;8.97;3.20;;;;;;;15.94;77.18;92698.09;530213;28;896;-41
2023/10/26 00:32:52;;;;;;;9.55;3.08;;;;;;;15.95;77.22;92696.75;530227;28;868;-40
2023/10/26 00:33:07;;;;;;;5.70;2.80;;;;;;;15.94;77.26;92698.09;530284;28;841;-40
2023/10/26 00:33:23;;;;;;;4.80;2.33;;;;;;;15.89;77.00;92688.78;530213;28;1068;-40
2023/10/26 00:33:38;;;;;;;3.73;2.23;;;;;;;15.95;76.97;92696.75;530244;28;833;-40
2023/10/26 00:33:53;;;;;;;2.97;2.33;;;;;;;15.96;76.70;92698.22;530235;28;841;-40
2023/10/26 00:34:09;;;;;;;4.47;2.50;;;;;;;15.94;76.59;92696.03;530180;28;912;-40
2023/10/26 00:34:24;;;;;;;4.73;2.60;;;;;;;15.95;76.48;92699.56;530281;28;821;-41
2023/10/26 00:34:40;;;;;;;3.40;2.50;;;;;;;15.90;76.40;92690.22;530199;28;844;-40
2023/10/26 00:34:55;;;;;;;3.78;2.53;;;;;;;15.95;76.36;92696.75;530187;28;916;-40
2023/10/26 00:35:10;;;;;;;4.33;2.53;;;;;;;15.95;76.31;92691.19;530251;28;852;-41
2023/10/26 00:35:26;;;;;;;3.28;2.42;;;;;;;15.95;76.40;92702.34;530287;28;793;-41
2023/10/26 00:35:41;;;;;;;2.47;2.27;;;;;;;15.97;76.30;92696.88;530248;28;828;-40
2023/10/26 00:35:56;;;;;;;2.90;2.20;;;;;;;15.96;76.43;92701.00;530202;28;892;-41
2023/10/26 00:36:12;;;;;;;4.13;2.35;;;;;;;15.96;76.42;92703.78;530140;28;885;-40
2023/10/26 00:36:27;;;;;;;3.50;2.33;;;;;;;15.97;76.42;92696.16;530200;28;836;-41
2023/10/26 00:36:45;;;;;;;2.77;2.50;;;;;;;15.96;76.39;92694.72;527908;28;2622;-41
2023/10/26 00:37:00;;;;;;;2.85;2.53;;;;;;;15.97;76.41;92701.72;527950;28;888;-41
2023/10/26 00:37:16;;;;;;;4.03;2.55;;;;;;;15.94;76.28;92695.31;528025;28;872;-41
2023/10/26 00:37:31;;;;;;;5.93;2.63;;;;;;;15.94;76.29;92690.47;527932;28;884;-41
2023/10/26 00:37:47;;;;;;;3.97;2.57;;;;;;;15.94;76.09;92698.09;527987;28;868;-40
2023/10/26 00:38:02;;;;;;;3.65;2.28;;;;;;;15.93;75.99;92696.63;528026;28;840;-40
2023/10/26 00:38:17;;;;;;;4.40;2.50;;;;;;;15.93;76.03;92696.63;527935;28;889;-40
2023/10/26 00:38:33;;;;;;;4.83;2.57;;;;;;;15.92;76.04;92697.97;528582;28;954;-41
2023/10/26 00:38:48;;;;;;;4.00;2.38;;;;;;;15.88;76.16;92697.72;530230;28;809;-40
2023/10/26 00:39:03;;;;;;;3.20;2.63;;;;;;;15.90;76.14;92695.06;530271;28;852;-41
2023/10/26 00:39:19;;;;;;;4.70;2.60;;;;;;;15.90;76.06;92700.63;530217;28;828;-40
2023/10/26 00:39:34;;;;;;;4.38;2.40;;;;;;;15.88;76.15;92706.06;530245;28;865;-40
2023/10/26 00:39:50;;;;;;;3.67;2.43;;;;;;;15.86;76.29;92700.38;530244;28;801;-40
2023/10/26 00:40:06;;;;;;;5.35;2.42;;;;;;;15.86;76.34;92706.66;530153;28;931;-40
2023/10/26 00:40:21;;;;;;;4.32;2.55;;;;;;;15.84;76.20;92698.19;529970;28;1189;-40
2023/10/26 00:40:37;;;;;;;3.27;2.60;;;;;;;15.83;76.25;92701.59;530223;28;896;-40
2023/10/26 00:40:52;;;;;;;4.00;2.43;;;;;;;15.82;76.40;92712.00;530146;28;927;-40
2023/10/26 00:41:07;;;;;;;6.93;2.42;;;;;;;15.80;76.27;92702.78;530262;28;797;-40
2023/10/26 00:41:23;;;;;;;5.47;2.50;;;;;;;15.80;76.43;92702.78;530187;28;975;-40
2023/10/26 00:41:38;;;;;;;4.27;2.67;;;;;;;15.77;76.60;92709.53;530242;28;762;-41
2023/10/26 00:41:54;;;;;;;5.53;2.60;;;;;;;15.78;76.63;92711.75;530255;28;796;-40
2023/10/26 00:42:11;;;;;;;4.78;2.42;;;;;;;15.73;77.06;92707.25;530232;28;876;-40
2023/10/26 00:42:27;;;;;;;2.83;2.50;;;;;;;15.77;76.78;92717.88;530193;28;895;-40
2023/10/26 00:42:42;;;;;;;4.43;2.83;;;;;;;15.78;77.03;92722.13;530256;28;797;-40
2023/10/26 00:43:01;;;;;;;5.47;3.05;;;;;;;15.76;76.94;92714.41;530243;28;867;-40
2023/10/26 00:43:25;;;;;;;4.10;2.67;;;;;;;15.76;77.13;92714.41;530135;28;1227;-41
2023/10/26 00:43:40;;;;;;;4.78;2.90;;;;;;;15.75;77.27;92709.41;530150;28;983;-41
2023/10/26 00:43:56;;;;;;;6.03;3.33;;;;;;;15.74;77.29;92717.03;530276;28;843;-40
2023/10/26 00:44:11;;;;;;;5.83;3.50;;;;;;;15.76;77.19;92711.63;530134;28;951;-40
2023/10/26 00:44:27;;;;;;;4.13;2.75;;;;;;;15.75;77.33;92701.78;530251;28;794;-41
2023/10/26 00:44:46;;;;;;;3.07;2.20;;;;;;;15.76;77.23;92699.75;530199;28;876;-41
2023/10/26 00:45:01;;;;;;;4.25;2.67;;;;;;;15.74;77.03;92694.06;530227;28;923;-41
2023/10/26 00:45:18;;;;;;;3.38;2.50;;;;;;;15.74;76.88;92696.84;530283;28;891;-40
2023/10/26 00:45:35;;;;;;;3.05;2.28;;;;;;;15.74;76.70;92688.50;530230;28;1601;-40
2023/10/26 00:45:52;;;;;;;3.80;2.50;;;;;;;15.72;76.76;92682.81;530212;28;849;-40
2023/10/26 00:46:10;;;;;;;4.32;2.70;;;;;;;15.69;76.62;92681.22;530191;28;1094;-40
2023/10/26 00:46:26;;;;;;;5.13;2.65;;;;;;;15.68;76.74;92685.34;530117;28;940;-41
2023/10/26 00:46:41;;;;;;;4.50;2.60;;;;;;;15.63;76.70;92684.34;530192;28;884;-41
2023/10/26 00:46:56;;;;;;;3.90;2.40;;;;;;;15.63;76.63;92683.63;525824;28;834;-40
2023/10/26 00:47:13;;;;;;;3.13;2.30;;;;;;;15.59;76.62;92688.94;523812;28;849;-41
2023/10/26 00:47:28;;;;;;;3.10;2.42;;;;;;;15.58;76.72;92685.41;523763;28;857;-40
2023/10/26 00:47:44;;;;;;;3.40;2.45;;;;;;;15.57;76.69;92686.03;523780;28;964;-40
2023/10/26 00:48:00;;;;;;;2.67;2.17;;;;;;;15.57;76.82;92691.59;523779;28;877;-40
2023/10/26 00:48:15;;;;;;;3.90;2.63;;;;;;;15.55;76.73;92694.94;523778;28;794;-40
2023/10/26 00:48:31;;;;;;;4.95;2.92;;;;;;;15.56;76.85;92695.69;523750;28;861;-40
2023/10/26 00:48:46;;;;;;;4.47;2.77;;;;;;;15.56;76.92;92690.13;524881;28;1047;-40
2023/10/26 00:49:02;;;;;;;3.43;2.50;;;;;;;15.55;77.05;92700.50;528000;28;769;-41
2023/10/26 00:49:18;;;;;;;3.30;2.50;;;;;;;15.50;77.11;92687.69;527892;28;924;-40
2023/10/26 00:49:34;;;;;;;3.80;2.65;;;;;;;15.55;77.18;92702.59;527968;28;897;-41
2023/10/26 00:49:49;;;;;;;3.80;2.63;;;;;;;15.54;77.32;92698.34;528561;28;861;-40
2023/10/26 00:50:06;;;;;;;3.07;2.70;;;;;;;15.55;77.42;92705.38;530286;28;778;-40
2023/10/26 00:50:21;;;;;;;6.57;3.13;;;;;;;15.54;77.54;92704.63;530160;28;1114;-40
2023/10/26 00:50:37;;;;;;;8.07;3.40;;;;;;;15.52;77.81;92704.50;527948;28;1019;-41
2023/10/26 00:50:52;;;;;;;5.50;3.08;;;;;;;15.55;77.89;92705.38;527936;28;861;-41
2023/10/26 00:51:07;;;;;;;6.13;3.00;;;;;;;15.55;78.01;92708.16;527936;28;997;-40
2023/10/26 00:51:23;;;;;;;6.07;2.90;;;;;;;15.54;78.26;92703.91;527955;28;785;-40
2023/10/26 00:51:39;;;;;;;7.13;2.63;;;;;;;15.54;78.30;92695.56;525770;28;888;-40
2023/10/26 00:52:00;;;;;;;7.40;2.80;;;;;;;15.54;78.35;92709.47;525923;28;860;-41
2023/10/26 00:52:15;;;;;;;4.72;3.10;;;;;;;15.53;78.40;92703.16;523711;28;912;-40
2023/10/26 00:52:31;;;;;;;3.30;3.00;;;;;;;15.53;78.50;92702.44;524998;28;802;-41
2023/10/26 00:52:46;;;;;;;3.40;2.57;;;;;;;15.51;78.50;92700.25;525903;28;777;-41
2023/10/26 00:53:01;;;;;;;4.28;2.50;;;;;;;15.50;78.18;92695.31;525872;28;864;-40
2023/10/26 00:53:19;;;;;;;4.63;2.50;;;;;;;15.52;77.83;92696.16;525840;28;877;-41
2023/10/26 00:53:35;;;;;;;4.07;2.28;;;;;;;15.51;77.64;92685.63;527396;28;869;-40
2023/10/26 00:53:50;;;;;;;5.07;2.35;;;;;;;15.51;77.50;92691.19;527860;28;889;-40
2023/10/26 00:54:07;;;;;;;5.53;2.40;;;;;;;15.50;77.29;92686.97;528686;28;790;-40
2023/10/26 00:54:23;;;;;;;4.13;2.70;;;;;;;15.49;77.33;92694.56;530265;28;813;-40
2023/10/26 00:54:41;;;;;;;3.55;2.67;;;;;;;15.48;77.31;92687.56;528777;28;1194;-40
2023/10/26 00:54:57;;;;;;;4.00;2.50;;;;;;;15.48;77.33;92689.63;525820;28;941;-40
2023/10/26 00:55:13;;;;;;;5.20;2.47;;;;;;;15.48;77.14;92689.63;523764;28;896;-40
2023/10/26 00:55:29;;;;;;;4.63;2.80;;;;;;;15.48;77.18;92689.63;521687;28;813;-41
2023/10/26 00:55:48;;;;;;;4.43;2.92;;;;;;;15.47;77.26;92688.88;521754;28;841;-40
2023/10/26 00:56:04;;;;;;;3.17;2.43;;;;;;;15.48;77.40;92692.41;523777;28;861;-40
2023/10/26 00:56:22;;;;;;;3.80;2.67;;;;;;;15.47;77.46;92688.88;523727;28;896;-40
2023/10/26 00:56:37;;;;;;;4.55;3.05;;;;;;;15.47;77.44;92685.38;524141;28;1110;-40
2023/10/26 00:56:54;;;;;;;4.27;2.70;;;;;;;15.48;77.60;92689.63;523683;28;1089;-40
2023/10/26 00:57:10;;;;;;;2.92;2.35;;;;;;;15.48;77.68;92684.78;523758;28;873;-40
2023/10/26 00:57:26;;;;;;;3.88;2.92;;;;;;;15.49;77.50;92685.50;523737;28;925;-40
2023/10/26 00:57:41;;;;;;;5.65;3.13;;;;;;;15.49;77.49;92679.94;523757;28;1028;-40
2023/10/26 00:57:57;;;;;;;5.40;2.60;;;;;;;15.49;77.57;92677.16;522758;28;877;-40
2023/10/26 00:58:13;;;;;;;4.37;2.73;;;;;;;15.49;77.49;92686.22;521690;28;892;-40
2023/10/26 00:58:29;;;;;;;3.55;2.75;;;;;;;15.49;77.41;92680.66;521668;28;826;-41
2023/10/26 00:58:45;;;;;;;3.67;2.60;;;;;;;15.30;77.34;92652.25;522563;28;929;-40
2023/10/26 00:59:00;;;;;;;4.05;2.70;;;;;;;15.45;77.48;92674.84;523797;28;919;-40
2023/10/26 00:59:17;;;;;;;3.77;2.70;;;;;;;15.51;77.28;92685.63;523785;28;976;-40
2023/10/26 00:59:33;;;;;;;4.00;2.70;;;;;;;15.48;77.23;92684.78;523733;28;900;-40
2023/10/26 00:59:50;;;;;;;4.72;2.63;;;;;;;15.43;77.09;92676.75;524515;28;984;-40
2023/10/26 01:00:07;;;;;;;5.15;2.65;;;;;;;15.48;77.16;92687.56;526926;28;894;-41
2023/10/26 01:00:24;;;;;;;4.40;2.78;;;;;;;15.47;77.19;92686.09;528063;28;880;-40
2023/10/26 01:00:39;;;;;;;5.57;3.08;;;;;;;15.40;77.08;92673.09;528081;28;940;-41
2023/10/26 01:00:55;;;;;;;4.78;3.28;;;;;;;15.46;77.07;92681.13;528106;28;785;-40
2023/10/26 01:01:11;;;;;;;4.78;3.30;;;;;;;15.47;77.19;92688.16;528117;28;785;-41
2023/10/26 01:01:26;;;;;;;7.32;3.35;;;;;;;15.47;77.29;92688.16;525748;28;916;-41
2023/10/26 01:01:45;;;;;;;5.17;2.90;;;;;;;15.47;77.35;92685.38;525775;28;888;-40
2023/10/26 01:02:02;;;;;;;4.63;2.90;;;;;;;15.47;77.35;92688.16;525772;28;876;-40
2023/10/26 01:02:18;;;;;;;4.95;2.90;;;;;;;15.47;77.41;92694.44;525852;28;830;-41
2023/10/26 01:02:33;;;;;;;3.95;2.70;;;;;;;15.47;77.47;92685.38;523861;28;841;-40
2023/10/26 01:02:49;;;;;;;3.93;2.70;;;;;;;15.42;77.41;92681.56;523753;28;813;-41
2023/10/26 01:03:04;;;;;;;4.07;2.63;;;;;;;15.49;77.56;92693.84;523708;28;1942;-40
2023/10/26 01:03:20;;;;;;;4.88;2.80;;;;;;;15.48;77.40;92684.06;524780;28;944;-40
2023/10/26 01:03:36;;;;;;;4.83;2.73;;;;;;;15.47;77.33;92694.44;523817;28;829;-41
2023/10/26 01:03:52;;;;;;;5.35;2.72;;;;;;;15.45;77.29;92680.41;521669;28;770;-41
2023/10/26 01:04:07;;;;;;;5.78;2.78;;;;;;;15.49;76.98;92691.06;519662;28;890;-40
2023/10/26 01:04:23;;;;;;;4.35;3.03;;;;;;;15.48;77.08;92687.56;519588;28;818;-40
2023/10/26 01:04:38;;;;;;;4.07;3.13;;;;;;;15.47;77.08;92694.44;519614;28;913;-40
2023/10/26 01:04:53;;;;;;;4.47;3.10;;;;;;;15.48;77.14;92692.41;520101;28;798;-40
2023/10/26 01:05:09;;;;;;;4.25;2.92;;;;;;;15.49;77.04;92688.28;521685;28;853;-40
2023/10/26 01:05:24;;;;;;;5.20;3.20;;;;;;;15.49;77.03;92685.50;522181;28;802;-40
2023/10/26 01:05:39;;;;;;;5.30;3.13;;;;;;;15.48;76.89;92684.78;524051;28;892;-41
2023/10/26 01:05:55;;;;;;;4.53;2.80;;;;;;;15.49;76.81;92685.50;526123;28;905;-40
2023/10/26 01:06:10;;;;;;;4.73;2.70;;;;;;;15.49;76.75;92691.06;528098;28;782;-40
2023/10/26 01:06:26;;;;;;;4.35;2.83;;;;;;;15.49;76.71;92683.44;528073;28;860;-41
2023/10/26 01:06:42;;;;;;;4.80;2.83;;;;;;;15.51;76.64;92685.63;528000;28;857;-40
2023/10/26 01:06:57;;;;;;;4.13;2.72;;;;;;;15.51;76.81;92686.34;528128;28;880;-40
2023/10/26 01:07:13;;;;;;;3.80;2.78;;;;;;;15.51;76.66;92685.63;528016;28;786;-40
2023/10/26 01:07:28;;;;;;;4.30;2.80;;;;;;;15.51;76.56;92680.06;528091;28;789;-41
2023/10/26 01:07:43;;;;;;;4.67;2.90;;;;;;;15.51;76.48;92682.84;528152;28;782;-41
2023/10/26 01:07:59;;;;;;;4.93;2.90;;;;;;;15.50;76.47;92682.13;528059;28;864;-40
2023/10/26 01:08:14;;;;;;;4.13;2.93;;;;;;;15.51;76.33;92671.72;528143;28;813;-41
2023/10/26 01:08:30;;;;;;;4.80;3.10;;;;;;;15.50;76.27;92681.41;528078;28;908;-41
2023/10/26 01:08:45;;;;;;;4.88;2.95;;;;;;;15.52;76.28;92678.75;525815;28;809;-40
2023/10/26 01:09:01;;;;;;;4.57;2.93;;;;;;;15.51;76.30;92680.06;525888;28;829;-40
2023/10/26 01:09:16;;;;;;;5.32;2.97;;;;;;;15.50;76.37;92684.91;527143;28;2453;-40
2023/10/26 01:09:31;;;;;;;5.77;2.70;;;;;;;15.50;76.30;92681.41;527944;28;891;-40
2023/10/26 01:09:47;;;;;;;5.90;3.00;;;;;;;15.50;76.39;92682.13;527967;28;962;-40
2023/10/26 01:10:03;;;;;;;3.97;2.78;;;;;;;15.50;76.56;92682.13;527981;28;809;-40
2023/10/26 01:10:18;;;;;;;2.85;2.40;;;;;;;15.51;76.55;92688.41;527886;28;977;-41
2023/10/26 01:10:34;;;;;;;4.33;2.60;;;;;;;15.51;76.67;92691.19;528046;28;852;-40
2023/10/26 01:10:50;;;;;;;5.03;2.95;;;;;;;15.51;76.67;92682.84;528037;28;884;-40
2023/10/26 01:11:05;;;;;;;5.18;3.15;;;;;;;15.49;76.72;92686.22;528115;28;964;-40
2023/10/26 01:11:21;;;;;;;5.30;2.97;;;;;;;15.49;76.94;92682.72;528034;28;861;-40
2023/10/26 01:11:37;;;;;;;5.10;2.80;;;;;;;15.49;76.79;92682.72;528103;28;860;-41
2023/10/26 01:11:54;;;;;;;5.63;2.90;;;;;;;15.49;76.78;92685.50;528023;28;1097;-40
2023/10/26 01:12:09;;;;;;;6.30;2.92;;;;;;;15.50;76.66;92684.91;528102;28;849;-40
2023/10/26 01:12:25;;;;;;;6.10;3.00;;;;;;;15.51;76.38;92680.06;528040;28;1072;-40
2023/10/26 01:12:40;;;;;;;4.80;3.08;;;;;;;15.50;76.42;92676.56;528031;28;920;-41
2023/10/26 01:12:56;;;;;;;4.87;3.37;;;;;;;15.50;76.32;92676.56;527987;28;896;-40
2023/10/26 01:13:12;;;;;;;5.60;3.50;;;;;;;15.51;76.37;92685.63;527999;28;865;-40
2023/10/26 01:13:29;;;;;;;5.82;3.60;;;;;;;15.49;76.30;92685.50;528011;28;933;-40
2023/10/26 01:13:45;;;;;;;4.57;3.35;;;;;;;15.48;76.32;92684.78;528144;28;992;-40
2023/10/26 01:14:00;;;;;;;6.87;3.60;;;;;;;15.45;76.21;92683.19;527991;28;1140;-40
2023/10/26 01:14:15;;;;;;;6.80;3.90;;;;;;;15.49;76.23;92680.66;525827;28;885;-40
2023/10/26 01:14:31;;;;;;;4.73;3.90;;;;;;;15.45;76.39;92677.63;525811;28;871;-40
2023/10/26 01:14:46;;;;;;;5.57;4.00;;;;;;;15.48;76.57;92684.06;525878;28;880;-40
2023/10/26 01:15:02;;;;;;;6.25;4.00;;;;;;;15.48;76.47;92684.78;525868;28;861;-40
2023/10/26 01:15:18;;;;;;;5.75;3.70;;;;;;;15.49;76.70;92682.72;525794;28;1006;-40
2023/10/26 01:15:33;;;;;;;5.47;3.70;;;;;;;15.48;76.60;92679.22;523797;28;813;-40
2023/10/26 01:15:48;;;;;;;6.13;3.90;;;;;;;15.50;76.63;92679.34;521684;28;835;-40
2023/10/26 01:16:04;;;;;;;4.90;3.25;;;;;;;15.49;76.42;92674.38;519962;28;868;-40
2023/10/26 01:16:19;;;;;;;4.00;3.00;;;;;;;15.50;76.54;92673.03;521579;28;955;-40
2023/10/26 01:16:35;;;;;;;5.00;3.42;;;;;;;15.50;76.23;92673.78;521770;28;846;-41